This is the latest recevied weather packets stored in our database for station/object KE2A-13. If no packets are shown the sender has not sent any weather packets the latest 10 day(s).
| Time | Temp. | Humidity | Pressure | Rain* | Wind** | Luminosity | Snow |
|---|---|---|---|---|---|---|---|
| 1778004000 | 26.67° C | 47% | 1008.4 hPa | 1.52 mm | - | - | - |
| 1778003100 | 25.56° C | 48% | 1008.4 hPa | 1.52 mm | - | - | - |
| 1778002200 | 25.56° C | 48% | 1008.6 hPa | 1.52 mm | - | - | - |
| 1778001300 | 25.56° C | 50% | 1008.7 hPa | 1.52 mm | - | - | - |
| 1778000400 | 26.11° C | 49% | 1008.8 hPa | 1.52 mm | - | - | - |
| 1777999500 | 26.67° C | 48% | 1009 hPa | 1.52 mm | - | - | - |
| 1777998600 | 26.67° C | 49% | 1009.3 hPa | 1.52 mm | - | - | - |
| 1777997700 | 26.11° C | 47% | 1009.4 hPa | 1.52 mm | - | - | - |
| 1777996800 | 25.56° C | 47% | 1009.8 hPa | 1.52 mm | - | - | - |
| 1777995900 | 25° C | 50% | 1009.8 hPa | 1.52 mm | - | - | - |
| 1777995000 | 24.44° C | 51% | 1010 hPa | 1.52 mm | - | - | - |
| 1777994100 | 23.89° C | 51% | 1010.1 hPa | 1.52 mm | - | - | - |
| 1777993200 | 23.89° C | 52% | 1010.2 hPa | 1.52 mm | - | - | - |
| 1777992300 | 22.78° C | 54% | 1010.4 hPa | 1.52 mm | - | - | - |
| 1777991400 | 22.22° C | 57% | 1010.6 hPa | 1.52 mm | - | - | - |
| 1777990500 | 21.67° C | 59% | 1010.6 hPa | 1.52 mm | - | - | - |
| 1777989600 | 20.56° C | 63% | 1010.7 hPa | 1.52 mm | - | - | - |
| 1777988700 | 20° C | 67% | 1011 hPa | 1.52 mm | - | - | - |
| 1777987800 | 19.44° C | 68% | 1010.6 hPa | 1.52 mm | - | - | - |
| 1777986900 | 18.33° C | 70% | 1010.5 hPa | 1.52 mm | - | - | - |
| 1777986000 | 17.22° C | 74% | 1010.4 hPa | 1.27 mm | - | - | - |
| 1777985100 | 16.11° C | 82% | 1010.5 hPa | 1.27 mm | - | - | - |
| 1777984200 | 14.44° C | 91% | 1010.7 hPa | 1.27 mm | - | - | - |
| 1777983300 | 13.33° C | 93% | 1010.6 hPa | 1.52 mm | - | - | - |
| 1777982400 | 13.33° C | 91% | 1010.1 hPa | 1.52 mm | - | - | - |
* Rain since midnight (hover to see other rain measurements)
** Current wind speed in m/s (hover to see current wind gust speed)